Niederanven, Luxembourg
Current Conditions -  °F | °C
As of 1:50 PM on Wednesday 26 Nov 2014 (Local Time) from ELLX Reporting Station
Broken Clouds Broken Clouds  
Wind Chill: 37°   Ceiling: 600
Heat Index: 41°   Visibility: 2.8mi
Dew Point: 41°   Wind: 6mph
Humidity: 100%   Direction: 110°ESE
Pressure: 29.91"   Gusts: NA
Location:  49.65°N, 6.26°E
Report Text: ELLX 261250Z 11005KT 070V170 4500 BKN006 BKN008 05/05 Q1013 BECMG 5000
Loading
Personal Weather Stations






























Interactive Weather Map New forecast layout! Learn more

10-Day Weather Forecast

Advertisements
Track Severe Weather on mobile